Time;durP1;ratioP1;P1;durP2;ratioP2;P2;SDS_P1;SDS_P2;PMS_P1;PMS_P2;Temp;Humidity;BMP_temperature;BMP_pressure;BME280_temperature;BME280_humidity;BME280_pressure;Samples;Min_cycle;Max_cycle;Signal;HPM_P1;HPM_P2
2023/06/25 00:01:49;;;;;;;6.18;4.03;;;20.20;99.90;;;;;;4859669;29;20081;-80
2023/06/25 00:04:16;;;;;;;5.03;4.22;;;20.20;99.90;;;;;;4857940;29;20129;-82
2023/06/25 00:06:43;;;;;;;4.90;4.03;;;20.10;99.90;;;;;;4859308;29;20420;-82
2023/06/25 00:09:09;;;;;;;8.15;3.60;;;20.10;99.90;;;;;;4859413;29;20049;-79
2023/06/25 00:11:36;;;;;;;4.68;3.72;;;20.10;99.90;;;;;;4840737;29;20050;-81
2023/06/25 00:14:03;;;;;;;4.05;3.65;;;20.10;99.90;;;;;;4840930;29;20133;-82
2023/06/25 00:16:30;;;;;;;4.43;4.00;;;20.00;99.90;;;;;;4857114;29;20046;-80
2023/06/25 00:18:57;;;;;;;4.88;3.58;;;20.00;99.90;;;;;;4856154;29;20118;-79
2023/06/25 00:21:23;;;;;;;4.35;3.83;;;20.00;99.90;;;;;;4856277;29;20054;-81
2023/06/25 00:23:50;;;;;;;4.05;3.65;;;19.90;99.90;;;;;;4853372;29;20054;-82
2023/06/25 00:26:17;;;;;;;4.43;4.03;;;19.90;99.90;;;;;;4853188;29;20054;-79
2023/06/25 00:28:44;;;;;;;4.30;3.90;;;19.90;99.90;;;;;;4852683;29;20405;-80
2023/06/25 00:31:14;;;;;;;4.95;4.13;;;19.90;99.90;;;;;;4850719;29;20053;-82
2023/06/25 00:33:44;;;;;;;5.80;3.85;;;19.80;99.90;;;;;;4852964;29;20056;-83
2023/06/25 00:36:10;;;;;;;6.57;4.32;;;19.80;99.90;;;;;;4852514;29;20048;-80
2023/06/25 00:38:39;;;;;;;5.05;4.22;;;19.80;99.90;;;;;;4854571;29;20045;-82
2023/06/25 00:41:08;;;;;;;5.50;3.95;;;19.80;99.90;;;;;;4852869;29;20064;-82
2023/06/25 00:43:41;;;;;;;5.78;4.00;;;19.70;99.90;;;;;;4853497;29;20041;-80
2023/06/25 00:46:15;;;;;;;6.80;4.00;;;19.70;99.90;;;;;;4836817;29;20050;-82
2023/06/25 00:48:45;;;;;;;4.18;3.78;;;19.70;99.90;;;;;;4836822;29;20049;-80
2023/06/25 00:51:14;;;;;;;6.65;4.18;;;19.70;99.90;;;;;;4854131;29;20046;-82
2023/06/25 00:53:42;;;;;;;4.68;3.88;;;19.60;99.90;;;;;;4851575;29;20042;-81
2023/06/25 00:56:09;;;;;;;4.53;3.95;;;19.60;99.90;;;;;;4827237;29;20046;-80
2023/06/25 00:58:38;;;;;;;4.07;3.67;;;19.60;99.90;;;;;;4857642;29;20042;-83
2023/06/25 01:01:19;;;;;;;4.50;3.92;;;19.50;99.90;;;;;;4857932;29;20058;-82
2023/06/25 01:03:54;;;;;;;5.55;4.63;;;19.50;99.90;;;;;;4836265;29;20050;-81
2023/06/25 01:06:29;;;;;;;5.40;4.05;;;19.50;99.90;;;;;;4853688;29;20148;-80
2023/06/25 01:08:59;;;;;;;4.63;3.92;;;19.50;99.90;;;;;;4852947;29;20559;-81
2023/06/25 01:11:29;;;;;;;8.40;4.47;;;19.50;99.90;;;;;;4854085;29;20082;-82
2023/06/25 01:13:56;;;;;;;8.27;3.85;;;19.40;99.90;;;;;;4852945;29;20058;-81
2023/06/25 01:16:23;;;;;;;6.18;4.43;;;19.40;99.90;;;;;;4851146;29;20050;-82
2023/06/25 01:18:50;;;;;;;5.60;3.88;;;19.40;99.90;;;;;;4833516;29;20405;-82
2023/06/25 01:21:31;;;;;;;4.78;4.05;;;19.30;99.90;;;;;;4852818;29;20113;-82
2023/06/25 01:23:58;;;;;;;4.07;3.67;;;19.30;99.90;;;;;;4853134;29;20060;-83
2023/06/25 01:26:25;;;;;;;5.28;4.20;;;19.30;99.90;;;;;;4853169;29;20045;-82
2023/06/25 01:28:55;;;;;;;4.13;3.67;;;19.30;99.90;;;;;;4853476;29;20054;-80
2023/06/25 01:31:25;;;;;;;6.55;4.30;;;19.30;99.90;;;;;;4851046;29;20061;-81
2023/06/25 01:33:53;;;;;;;4.93;4.18;;;19.20;99.90;;;;;;4852463;29;20050;-79
2023/06/25 01:36:19;;;;;;;6.55;4.50;;;19.20;99.90;;;;;;4853048;29;20050;-81
2023/06/25 01:38:46;;;;;;;6.45;4.18;;;19.20;99.90;;;;;;4852735;29;20432;-82
2023/06/25 01:41:13;;;;;;;5.75;4.47;;;19.10;99.90;;;;;;4850670;29;20049;-79
2023/06/25 01:43:41;;;;;;;8.38;4.22;;;19.20;99.90;;;;;;4852060;29;20078;-81
2023/06/25 01:46:07;;;;;;;4.65;4.03;;;19.10;99.90;;;;;;4828644;29;20087;-81
2023/06/25 01:48:35;;;;;;;6.75;4.60;;;19.10;99.90;;;;;;4851483;29;20419;-83
2023/06/25 01:51:02;;;;;;;7.50;4.40;;;19.10;99.90;;;;;;4856799;29;20050;-83
2023/06/25 01:53:29;;;;;;;4.38;3.83;;;19.10;99.90;;;;;;4857160;29;20050;-81
2023/06/25 01:55:55;;;;;;;5.60;4.18;;;19.00;99.90;;;;;;4855039;29;20057;-79
2023/06/25 01:58:22;;;;;;;5.45;3.92;;;19.00;99.90;;;;;;4854149;29;20516;-81
2023/06/25 02:00:49;;;;;;;4.47;4.05;;;19.00;99.90;;;;;;4852811;29;20046;-82
2023/06/25 02:03:15;;;;;;;5.07;4.15;;;19.00;99.90;;;;;;4852195;29;20079;-80
2023/06/25 02:05:42;;;;;;;7.80;3.92;;;19.00;99.90;;;;;;4851563;29;20049;-82
2023/06/25 02:08:09;;;;;;;5.50;4.18;;;19.00;99.90;;;;;;4852327;29;20074;-82
2023/06/25 02:10:36;;;;;;;4.43;3.65;;;18.90;99.90;;;;;;4851434;29;20042;-80
2023/06/25 02:13:02;;;;;;;6.05;4.38;;;18.90;99.90;;;;;;4823600;29;20115;-82
2023/06/25 02:15:31;;;;;;;6.25;4.38;;;18.90;99.90;;;;;;4852907;29;20042;-82
2023/06/25 02:17:57;;;;;;;4.63;3.88;;;18.90;99.90;;;;;;4837168;29;20475;-82
2023/06/25 02:20:24;;;;;;;6.10;4.70;;;18.90;99.90;;;;;;4852627;29;20050;-82
2023/06/25 02:22:51;;;;;;;7.60;3.88;;;18.80;99.90;;;;;;4853725;29;20070;-84
2023/06/25 02:25:18;;;;;;;4.43;3.85;;;18.80;99.90;;;;;;4850765;29;20054;-80
2023/06/25 02:27:45;;;;;;;6.43;4.35;;;18.70;99.90;;;;;;4852006;29;20061;-82
2023/06/25 02:30:12;;;;;;;6.20;4.40;;;18.70;99.90;;;;;;4851480;29;20081;-82
2023/06/25 02:32:39;;;;;;;4.40;4.00;;;18.70;99.90;;;;;;4851971;29;20125;-80
2023/06/25 02:35:08;;;;;;;5.22;4.22;;;18.70;99.90;;;;;;4851740;29;20053;-83
2023/06/25 02:37:35;;;;;;;4.97;3.78;;;18.70;99.90;;;;;;4852577;29;20042;-81
2023/06/25 02:40:02;;;;;;;6.65;3.78;;;18.70;99.90;;;;;;4850886;29;20114;-82
2023/06/25 02:42:29;;;;;;;5.47;4.43;;;18.60;99.90;;;;;;4854152;29;20054;-80
2023/06/25 02:44:55;;;;;;;6.25;4.32;;;18.60;99.90;;;;;;4840387;29;20634;-79
2023/06/25 02:47:22;;;;;;;4.65;4.03;;;18.60;99.90;;;;;;4854630;29;20054;-79
2023/06/25 02:49:49;;;;;;;5.57;4.35;;;18.50;99.90;;;;;;4853470;29;20219;-81
2023/06/25 02:52:16;;;;;;;4.63;3.90;;;18.50;99.90;;;;;;4852846;29;20046;-79
2023/06/25 02:54:42;;;;;;;5.95;4.30;;;18.50;99.90;;;;;;4835544;29;20078;-82
2023/06/25 02:57:09;;;;;;;5.32;4.13;;;18.50;99.90;;;;;;4851472;29;20056;-81
2023/06/25 02:59:36;;;;;;;4.88;3.85;;;18.50;99.90;;;;;;4850505;29;20058;-81
2023/06/25 03:02:03;;;;;;;6.95;4.00;;;18.40;99.90;;;;;;4852199;29;20079;-82
2023/06/25 03:04:29;;;;;;;4.55;3.88;;;18.40;99.90;;;;;;4851084;29;20426;-80
2023/06/25 03:06:56;;;;;;;5.03;4.32;;;18.40;99.90;;;;;;4852737;29;20065;-82
2023/06/25 03:09:23;;;;;;;6.07;4.68;;;18.40;99.90;;;;;;4849254;29;20061;-82
2023/06/25 03:11:50;;;;;;;5.30;4.40;;;18.40;99.90;;;;;;4826899;29;20073;-82
2023/06/25 03:14:16;;;;;;;6.22;4.57;;;18.30;99.90;;;;;;4836340;29;20046;-79
2023/06/25 03:17:00;;;;;;;5.10;4.00;;;18.30;99.90;;;;;;4835022;29;20050;-83
2023/06/25 03:19:27;;;;;;;4.95;4.38;;;18.30;99.90;;;;;;4837063;29;20030;-82
2023/06/25 03:21:53;;;;;;;5.30;4.55;;;18.30;99.90;;;;;;4853518;29;20477;-81
2023/06/25 03:24:20;;;;;;;5.18;4.22;;;18.20;99.90;;;;;;4854118;29;20053;-80
2023/06/25 03:26:47;;;;;;;6.20;4.35;;;18.20;99.90;;;;;;4853873;29;20512;-80
2023/06/25 03:29:14;;;;;;;8.38;5.05;;;18.20;99.90;;;;;;4851904;29;20535;-83
2023/06/25 03:31:40;;;;;;;5.57;4.10;;;18.20;99.90;;;;;;4852219;29;20042;-82
2023/06/25 03:34:07;;;;;;;7.45;4.82;;;18.20;99.90;;;;;;4852617;29;20428;-81
2023/06/25 03:36:34;;;;;;;5.22;4.05;;;18.20;99.90;;;;;;4855926;29;20050;-81
2023/06/25 03:39:01;;;;;;;5.22;4.13;;;18.20;99.90;;;;;;4855033;29;20083;-81
2023/06/25 03:41:28;;;;;;;5.15;4.30;;;18.20;99.90;;;;;;4854162;29;20085;-80
2023/06/25 03:43:55;;;;;;;5.10;4.20;;;18.10;99.90;;;;;;4850079;29;20053;-80
2023/06/25 03:46:22;;;;;;;7.20;4.22;;;18.10;99.90;;;;;;4853138;29;20113;-79
2023/06/25 03:48:48;;;;;;;4.78;4.18;;;18.10;99.90;;;;;;4852788;29;20524;-81
2023/06/25 03:51:15;;;;;;;8.15;4.32;;;18.10;99.90;;;;;;4835929;29;20054;-80
2023/06/25 03:53:42;;;;;;;5.50;4.88;;;18.10;99.90;;;;;;4853010;29;20046;-82
2023/06/25 03:56:08;;;;;;;7.18;4.50;;;18.10;99.90;;;;;;4852478;29;20054;-81
2023/06/25 03:58:35;;;;;;;5.70;4.60;;;18.10;99.90;;;;;;4852044;29;20076;-82
2023/06/25 04:01:03;;;;;;;6.70;4.32;;;18.10;99.90;;;;;;4852502;29;20058;-82
2023/06/25 04:03:29;;;;;;;5.07;4.32;;;18.10;99.90;;;;;;4852924;29;20054;-82
2023/06/25 04:05:56;;;;;;;7.20;4.28;;;18.10;99.90;;;;;;4838836;29;20053;-82
2023/06/25 04:08:23;;;;;;;5.15;4.30;;;18.10;99.90;;;;;;4829984;29;20046;-81
2023/06/25 04:10:49;;;;;;;4.35;3.95;;;18.10;99.90;;;;;;4855901;29;20125;-82
2023/06/25 04:13:16;;;;;;;5.72;4.03;;;18.10;99.90;;;;;;4856920;29;20050;-80
2023/06/25 04:15:43;;;;;;;6.75;4.28;;;18.10;99.90;;;;;;4855188;29;20089;-81
2023/06/25 04:18:09;;;;;;;6.28;4.32;;;18.10;99.90;;;;;;4840266;29;20428;-82
2023/06/25 04:20:36;;;;;;;4.60;3.75;;;18.10;99.90;;;;;;4856597;29;20129;-80
2023/06/25 04:23:03;;;;;;;5.45;4.10;;;18.10;99.90;;;;;;4856924;29;20054;-79
2023/06/25 04:25:31;;;;;;;5.22;4.43;;;18.10;99.90;;;;;;4855461;29;20046;-80
2023/06/25 04:27:57;;;;;;;4.05;3.60;;;18.10;99.90;;;;;;4858755;29;20141;-82
2023/06/25 04:30:24;;;;;;;4.20;3.67;;;18.10;99.90;;;;;;4857762;29;20081;-82
2023/06/25 04:32:51;;;;;;;4.57;4.05;;;18.20;99.90;;;;;;4841647;29;20050;-81
2023/06/25 04:35:18;;;;;;;7.20;4.40;;;18.20;99.90;;;;;;4856801;29;20058;-80
2023/06/25 04:37:44;;;;;;;5.20;4.28;;;18.20;99.90;;;;;;4839712;29;20099;-82
2023/06/25 04:40:12;;;;;;;4.28;3.88;;;18.30;99.90;;;;;;4855890;29;20477;-81
2023/06/25 04:42:39;;;;;;;8.75;4.10;;;18.30;99.90;;;;;;4856837;29;20106;-82
2023/06/25 04:45:06;;;;;;;4.75;3.85;;;18.30;99.90;;;;;;4856827;29;20054;-82
2023/06/25 04:47:33;;;;;;;6.18;4.22;;;18.40;99.90;;;;;;4856950;29;20085;-82
2023/06/25 04:50:00;;;;;;;5.07;4.00;;;18.50;99.90;;;;;;4856345;29;20089;-80
2023/06/25 04:52:27;;;;;;;4.75;3.72;;;18.50;99.90;;;;;;4854974;29;20070;-81
2023/06/25 04:54:53;;;;;;;4.03;3.63;;;18.60;99.90;;;;;;4856884;29;20546;-83
2023/06/25 04:57:20;;;;;;;4.28;3.45;;;18.70;99.90;;;;;;4856666;29;20050;-81
2023/06/25 04:59:47;;;;;;;4.88;3.53;;;18.90;99.90;;;;;;4855975;29;20096;-81
2023/06/25 05:02:14;;;;;;;4.38;3.65;;;19.00;99.90;;;;;;4855479;29;20053;-82
2023/06/25 05:04:40;;;;;;;4.55;3.75;;;19.20;99.90;;;;;;4855436;29;20118;-81
2023/06/25 05:07:09;;;;;;;6.10;3.75;;;19.40;99.90;;;;;;4855182;29;20054;-82
2023/06/25 05:09:36;;;;;;;4.53;3.60;;;19.60;99.90;;;;;;4856597;29;20559;-80
2023/06/25 05:12:03;;;;;;;4.30;3.40;;;19.80;99.90;;;;;;4856880;29;20083;-82
2023/06/25 05:14:30;;;;;;;5.00;3.47;;;19.90;99.90;;;;;;4840003;29;20065;-83
2023/06/25 05:16:56;;;;;;;3.60;2.95;;;20.10;99.90;;;;;;4856860;29;20049;-80
2023/06/25 05:19:23;;;;;;;4.63;3.65;;;20.30;99.90;;;;;;4857128;29;20042;-83
2023/06/25 05:21:50;;;;;;;4.50;3.40;;;20.40;99.90;;;;;;4858176;29;20513;-84
2023/06/25 05:24:17;;;;;;;5.55;3.38;;;20.50;99.90;;;;;;4858951;29;20061;-81
2023/06/25 05:26:44;;;;;;;6.15;3.55;;;20.70;99.90;;;;;;4857613;29;20049;-81
2023/06/25 05:29:10;;;;;;;5.03;3.35;;;20.80;99.90;;;;;;4840759;29;20065;-83
2023/06/25 05:31:37;;;;;;;4.10;3.70;;;20.90;99.90;;;;;;4857185;29;20046;-83
2023/06/25 05:34:04;;;;;;;4.63;3.63;;;21.00;99.90;;;;;;4857513;29;20118;-82
2023/06/25 05:36:30;;;;;;;3.92;3.53;;;21.10;99.90;;;;;;4857904;29;20057;-84
2023/06/25 05:38:57;;;;;;;4.38;3.92;;;21.10;99.90;;;;;;4841513;29;20050;-80
2023/06/25 05:41:24;;;;;;;4.22;3.80;;;21.20;99.90;;;;;;4857181;29;20087;-81
2023/06/25 05:43:50;;;;;;;8.55;4.75;;;21.30;99.90;;;;;;4857289;29;20049;-83
2023/06/25 05:46:17;;;;;;;4.95;3.95;;;21.30;99.90;;;;;;4855572;29;20057;-82
2023/06/25 05:48:44;;;;;;;5.63;4.15;;;21.30;99.90;;;;;;4857269;29;20114;-84
2023/06/25 05:51:11;;;;;;;6.30;4.15;;;21.30;99.90;;;;;;4856679;29;20046;-83
2023/06/25 05:53:40;;;;;;;7.22;4.47;;;21.20;99.90;;;;;;4856357;29;20050;-83
2023/06/25 05:56:07;;;;;;;5.88;4.38;;;21.20;99.90;;;;;;4855994;29;20050;-80
2023/06/25 05:58:35;;;;;;;4.85;4.07;;;21.20;99.90;;;;;;4856253;29;20062;-80
2023/06/25 06:01:05;;;;;;;5.53;4.60;;;21.10;99.90;;;;;;4855434;29;20180;-80
2023/06/25 06:03:32;;;;;;;;;;;21.10;99.90;;;;;;4855590;29;20058;-83
2023/06/25 06:06:00;;;;;;;5.30;4.35;;;21.10;99.90;;;;;;4829801;29;19924;-83
2023/06/25 06:08:27;;;;;;;5.00;4.30;;;21.00;99.90;;;;;;4840123;29;20050;-82
2023/06/25 06:10:54;;;;;;;6.50;4.55;;;21.00;99.90;;;;;;4838613;29;20054;-80
2023/06/25 06:13:21;;;;;;;5.10;3.83;;;21.00;99.90;;;;;;4857240;29;20050;-83
2023/06/25 06:15:47;;;;;;;5.13;3.80;;;21.00;99.90;;;;;;4853484;29;20133;-79
2023/06/25 06:18:14;;;;;;;4.63;3.67;;;21.00;99.90;;;;;;4855830;29;20069;-82
2023/06/25 06:20:41;;;;;;;4.38;3.92;;;21.00;99.90;;;;;;4856119;29;20050;-80
2023/06/25 06:23:07;;;;;;;5.95;4.03;;;21.00;99.90;;;;;;4856386;29;20060;-81
2023/06/25 06:25:34;;;;;;;5.20;3.85;;;21.00;99.90;;;;;;4856481;29;20087;-82
2023/06/25 06:28:02;;;;;;;5.60;4.07;;;21.00;99.90;;;;;;4855714;29;20057;-83
2023/06/25 06:30:29;;;;;;;5.03;4.20;;;21.00;99.90;;;;;;4853880;29;20054;-83
2023/06/25 06:32:55;;;;;;;7.32;4.50;;;21.00;99.90;;;;;;4857381;29;20171;-82
2023/06/25 06:35:22;;;;;;;8.80;5.05;;;21.00;99.90;;;;;;4856195;29;20112;-80
2023/06/25 06:37:49;;;;;;;5.97;4.70;;;21.00;99.90;;;;;;4856606;29;20089;-81
2023/06/25 06:40:16;;;;;;;6.05;5.15;;;21.00;99.90;;;;;;4855548;29;20050;-81
2023/06/25 06:42:42;;;;;;;8.85;4.63;;;21.00;99.90;;;;;;4856416;29;20057;-83
2023/06/25 06:45:09;;;;;;;7.00;4.28;;;21.10;99.90;;;;;;4855857;29;20058;-84
2023/06/25 06:47:37;;;;;;;7.43;4.38;;;21.00;99.90;;;;;;4855087;29;20049;-83
2023/06/25 06:50:05;;;;;;;6.35;4.78;;;21.10;99.90;;;;;;4839044;29;20138;-80
2023/06/25 06:52:31;;;;;;;8.32;4.20;;;21.10;99.90;;;;;;4854909;29;20057;-83
2023/06/25 06:54:58;;;;;;;7.70;5.10;;;21.10;99.90;;;;;;4852009;29;20046;-80
2023/06/25 06:57:25;;;;;;;6.78;4.60;;;21.10;99.90;;;;;;4839581;29;20061;-83
2023/06/25 06:59:51;;;;;;;7.07;4.93;;;21.10;99.90;;;;;;4851747;29;20053;-83
2023/06/25 07:02:19;;;;;;;7.57;5.07;;;21.20;99.90;;;;;;4856027;29;20064;-83
2023/06/25 07:04:46;;;;;;;8.73;4.90;;;21.20;99.90;;;;;;4840287;29;20050;-83
2023/06/25 07:07:12;;;;;;;6.57;5.25;;;21.20;99.90;;;;;;4856291;29;20073;-83
2023/06/25 07:09:50;;;;;;;5.18;4.40;;;21.20;99.90;;;;;;4855136;29;20061;-80
2023/06/25 07:12:18;;;;;;;6.93;4.63;;;21.20;99.90;;;;;;4855086;29;20054;-82
2023/06/25 07:14:44;;;;;;;8.15;4.82;;;21.20;99.90;;;;;;4855683;29;20070;-84
2023/06/25 07:17:11;;;;;;;6.15;4.65;;;21.30;99.90;;;;;;4854938;29;20054;-81
2023/06/25 07:19:38;;;;;;;5.18;4.60;;;21.30;99.90;;;;;;4852770;29;20372;-81
2023/06/25 07:22:05;;;;;;;6.25;4.90;;;21.30;99.90;;;;;;4837440;29;20054;-83
2023/06/25 07:24:32;;;;;;;6.82;5.53;;;21.30;99.90;;;;;;4852703;29;20078;-83
2023/06/25 07:26:59;;;;;;;6.35;5.03;;;21.30;99.90;;;;;;4831163;29;20143;-81
2023/06/25 07:29:28;;;;;;;9.05;5.00;;;21.40;99.90;;;;;;4855734;29;20062;-82
2023/06/25 07:31:54;;;;;;;6.43;4.32;;;21.40;99.90;;;;;;4839835;29;20050;-81
2023/06/25 07:34:21;;;;;;;5.30;4.35;;;21.40;99.90;;;;;;4856227;29;20050;-80
2023/06/25 07:36:48;;;;;;;5.20;3.67;;;21.50;99.90;;;;;;4855883;29;20050;-81
2023/06/25 07:39:29;;;;;;;5.22;4.18;;;21.50;99.90;;;;;;4854374;29;20102;-81
2023/06/25 07:41:56;;;;;;;4.65;3.92;;;21.50;99.90;;;;;;4857205;29;20516;-84
2023/06/25 07:44:23;;;;;;;5.10;4.30;;;21.50;99.90;;;;;;4859071;29;20058;-81
2023/06/25 07:47:10;;;;;;;5.30;4.32;;;21.60;99.90;;;;;;4858722;29;20060;-83
2023/06/25 07:49:36;;;;;;;6.90;3.97;;;21.60;99.90;;;;;;4857540;29;20049;-81
2023/06/25 07:52:03;;;;;;;8.40;4.18;;;21.60;99.90;;;;;;4859571;29;20057;-79
2023/06/25 07:54:30;;;;;;;4.53;3.60;;;21.70;99.90;;;;;;4860268;29;20054;-82
2023/06/25 07:56:57;;;;;;;5.07;3.65;;;21.70;99.90;;;;;;4860375;29;20046;-80
2023/06/25 07:59:23;;;;;;;6.60;3.80;;;21.80;99.90;;;;;;4841935;29;20057;-82
2023/06/25 08:01:56;;;;;;;8.55;4.32;;;21.80;99.90;;;;;;4844356;29;20061;-82
2023/06/25 08:04:22;;;;;;;5.22;4.32;;;21.90;99.90;;;;;;4842705;29;20062;-79
2023/06/25 08:06:49;;;;;;;4.47;3.72;;;21.90;99.90;;;;;;4859471;29;20054;-83
2023/06/25 08:09:16;;;;;;;5.38;3.90;;;22.00;99.90;;;;;;4844037;29;20141;-83
2023/06/25 08:11:43;;;;;;;10.23;4.18;;;21.90;99.90;;;;;;4861858;29;20075;-83
2023/06/25 08:14:10;;;;;;;4.85;3.92;;;22.00;99.90;;;;;;4843849;29;20066;-79
2023/06/25 08:16:36;;;;;;;8.90;4.85;;;22.00;99.90;;;;;;4859079;29;20539;-82
2023/06/25 08:19:03;;;;;;;6.80;4.20;;;22.10;99.90;;;;;;4859152;29;20050;-83
2023/06/25 08:21:30;;;;;;;3.83;3.42;;;22.10;99.90;;;;;;4859332;29;20054;-82
2023/06/25 08:23:56;;;;;;;4.82;3.60;;;22.10;99.90;;;;;;4855709;29;20054;-81
2023/06/25 08:26:23;;;;;;;4.90;4.00;;;22.20;99.90;;;;;;4858439;29;20053;-82
2023/06/25 08:28:50;;;;;;;6.38;4.30;;;22.20;99.90;;;;;;4858479;29;20057;-80
2023/06/25 08:31:17;;;;;;;4.63;3.45;;;22.30;99.90;;;;;;4829304;29;20124;-83
2023/06/25 08:33:44;;;;;;;4.72;3.88;;;22.30;99.90;;;;;;4857773;29;20136;-82
2023/06/25 08:36:11;;;;;;;4.60;3.90;;;22.30;99.90;;;;;;4842744;29;20050;-83
2023/06/25 08:38:38;;;;;;;9.48;4.43;;;22.30;99.90;;;;;;4858275;29;20045;-80
2023/06/25 08:41:05;;;;;;;5.68;4.38;;;22.40;99.90;;;;;;4858587;29;20056;-83
2023/06/25 08:43:32;;;;;;;4.82;4.32;;;22.40;99.90;;;;;;4858829;29;20046;-83
2023/06/25 08:45:58;;;;;;;6.15;4.85;;;22.50;99.90;;;;;;4856628;23;20046;-78
2023/06/25 08:48:29;;;;;;;6.60;4.60;;;22.50;99.90;;;;;;4831398;29;20054;-79
2023/06/25 08:51:01;;;;;;;5.93;3.97;;;22.50;99.90;;;;;;4823884;29;20049;-76
2023/06/25 08:53:29;;;;;;;8.55;4.40;;;22.60;99.90;;;;;;4824640;29;20050;-77
2023/06/25 08:55:56;;;;;;;5.45;4.55;;;22.60;99.90;;;;;;4826769;29;20086;-77
2023/06/25 08:58:24;;;;;;;5.20;4.38;;;22.60;99.90;;;;;;4829658;29;20129;-77
2023/06/25 09:00:51;;;;;;;5.05;4.07;;;22.70;99.90;;;;;;4810822;29;20074;-76
2023/06/25 09:03:18;;;;;;;4.10;3.60;;;22.70;99.90;;;;;;4830636;29;20058;-77
2023/06/25 09:05:55;;;;;;;4.28;3.55;;;22.80;99.90;;;;;;4809316;29;20114;-77
2023/06/25 09:08:31;;;;;;;5.63;4.15;;;22.80;99.90;;;;;;4827556;29;20473;-77
2023/06/25 09:10:58;;;;;;;4.45;3.80;;;22.90;99.90;;;;;;4813033;29;20051;-77
2023/06/25 09:13:27;;;;;;;4.68;3.90;;;22.90;99.90;;;;;;4834080;29;20061;-77
2023/06/25 09:16:01;;;;;;;5.28;4.07;;;23.00;99.90;;;;;;4827802;29;20153;-77
2023/06/25 09:18:32;;;;;;;7.63;4.47;;;23.00;99.90;;;;;;4827070;29;20125;-77
2023/06/25 09:21:04;;;;;;;7.38;4.43;;;23.10;99.90;;;;;;4810939;29;20090;-75
2023/06/25 09:23:32;;;;;;;6.43;4.00;;;23.10;99.90;;;;;;4827817;29;20122;-75
2023/06/25 09:26:05;;;;;;;6.07;4.50;;;23.10;99.90;;;;;;4829563;29;20042;-77
2023/06/25 09:28:32;;;;;;;5.15;3.58;;;23.20;99.90;;;;;;4841280;29;20116;-76
2023/06/25 09:31:01;;;;;;;4.50;3.90;;;23.20;99.90;;;;;;4821097;29;20065;-77
2023/06/25 09:33:35;;;;;;;4.38;3.58;;;23.20;99.90;;;;;;4831695;29;20505;-78
2023/06/25 09:36:03;;;;;;;7.63;4.55;;;23.30;99.90;;;;;;4826662;29;20054;-78
2023/06/25 09:38:45;;;;;;;5.15;4.03;;;23.30;99.90;;;;;;4828223;29;20064;-76
2023/06/25 09:41:17;;;;;;;4.32;3.92;;;23.40;99.90;;;;;;4830316;29;20106;-78
2023/06/25 09:43:45;;;;;;;5.00;4.10;;;23.40;99.90;;;;;;4833810;29;20046;-77
2023/06/25 09:46:12;;;;;;;7.25;4.45;;;23.40;99.90;;;;;;4828756;29;20052;-78
2023/06/25 09:48:42;;;;;;;6.32;4.20;;;23.50;99.90;;;;;;4828478;29;20052;-77
2023/06/25 09:51:10;;;;;;;5.88;4.38;;;23.60;99.90;;;;;;4830907;29;20477;-77
2023/06/25 09:53:39;;;;;;;5.72;4.63;;;23.70;99.90;;;;;;4829439;29;20047;-76
2023/06/25 09:56:07;;;;;;;7.67;4.33;;;23.70;99.90;;;;;;4831344;29;20050;-77
2023/06/25 09:58:35;;;;;;;5.35;3.67;;;23.70;99.90;;;;;;4833943;29;20105;-77
2023/06/25 10:01:02;;;;;;;6.45;3.88;;;23.80;99.90;;;;;;4829516;29;20050;-77
2023/06/25 10:03:29;;;;;;;6.65;3.40;;;23.80;99.90;;;;;;4830723;29;20054;-76
2023/06/25 10:05:56;;;;;;;6.00;4.35;;;23.90;99.90;;;;;;4830096;29;20058;-77
2023/06/25 10:08:23;;;;;;;7.55;3.95;;;24.00;99.90;;;;;;4826334;29;20085;-78
2023/06/25 10:10:58;;;;;;;4.97;3.58;;;24.00;99.90;;;;;;4823423;29;20092;-78
2023/06/25 10:13:25;;;;;;;5.95;3.70;;;24.10;99.90;;;;;;4830920;29;20053;-78
2023/06/25 10:16:03;;;;;;;6.25;3.97;;;24.10;99.90;;;;;;4823877;29;20047;-78
2023/06/25 10:18:30;;;;;;;3.92;3.60;;;24.20;99.90;;;;;;4824983;29;20082;-78
2023/06/25 10:20:58;;;;;;;4.53;3.80;;;24.20;99.90;;;;;;4825823;29;20058;-78
2023/06/25 10:23:28;;;;;;;6.22;3.83;;;24.30;99.90;;;;;;4824915;29;20055;-78
2023/06/25 10:25:56;;;;;;;;;;;24.40;99.90;;;;;;4828058;29;20060;-77
2023/06/25 10:28:29;;;;;;;8.57;4.90;;;24.40;99.90;;;;;;4831439;29;20402;-77
2023/06/25 10:31:10;;;;;;;5.30;4.28;;;24.40;99.90;;;;;;4824950;29;20366;-77
2023/06/25 10:33:38;;;;;;;7.03;4.10;;;24.40;99.90;;;;;;4824086;29;20048;-78
2023/06/25 10:36:08;;;;;;;4.97;3.72;;;24.40;99.90;;;;;;4826612;29;20054;-77
2023/06/25 10:38:34;;;;;;;5.97;4.00;;;24.40;99.90;;;;;;4825205;29;20111;-78
2023/06/25 10:41:01;;;;;;;7.10;3.78;;;24.40;99.90;;;;;;4824478;29;20077;-78
2023/06/25 10:43:28;;;;;;;4.43;3.78;;;24.50;99.90;;;;;;4830560;29;20133;-78
2023/06/25 10:45:56;;;;;;;4.35;3.55;;;24.50;99.90;;;;;;4787955;29;1056521;-78
2023/06/25 10:48:24;;;;;;;6.75;3.50;;;24.50;99.90;;;;;;4825253;29;20080;-77
2023/06/25 10:50:52;;;;;;;4.60;3.80;;;24.60;99.90;;;;;;4826039;29;20428;-77
2023/06/25 10:53:21;;;;;;;4.75;3.83;;;24.60;99.90;;;;;;4827385;29;20051;-78
2023/06/25 10:55:51;;;;;;;5.78;3.85;;;24.70;99.90;;;;;;4809219;29;20050;-78
2023/06/25 10:58:21;;;;;;;4.78;3.70;;;24.70;99.90;;;;;;4827313;29;20046;-77
2023/06/25 11:00:55;;;;;;;5.55;4.70;;;24.80;99.90;;;;;;4826804;29;20078;-78
2023/06/25 11:03:23;;;;;;;4.43;4.00;;;24.90;99.90;;;;;;4825429;29;20054;-78
2023/06/25 11:05:50;;;;;;;4.78;3.67;;;25.00;99.90;;;;;;4829333;29;20053;-78
2023/06/25 11:08:17;;;;;;;5.55;4.00;;;25.00;99.90;;;;;;4827256;29;20055;-78
2023/06/25 11:10:44;;;;;;;5.65;3.70;;;25.00;99.90;;;;;;4832804;29;20490;-78
2023/06/25 11:13:12;;;;;;;4.57;3.85;;;25.00;99.90;;;;;;4829583;29;20489;-77
2023/06/25 11:15:40;;;;;;;5.03;4.20;;;25.00;99.90;;;;;;4825079;29;20462;-78
2023/06/25 11:18:08;;;;;;;5.07;3.78;;;25.10;99.90;;;;;;4825353;29;20050;-78
2023/06/25 11:20:35;;;;;;;4.93;4.00;;;25.10;99.90;;;;;;4827591;29;20107;-78
2023/06/25 11:23:02;;;;;;;5.45;3.90;;;25.10;99.90;;;;;;4811409;29;20542;-77
2023/06/25 11:25:30;;;;;;;4.72;4.20;;;25.20;99.90;;;;;;4832098;29;20476;-78
2023/06/25 11:28:08;;;;;;;5.35;3.88;;;25.20;99.90;;;;;;4827934;29;20107;-78
2023/06/25 11:30:35;;;;;;;7.63;4.45;;;25.20;99.90;;;;;;4825189;29;20051;-78
2023/06/25 11:33:09;;;;;;;4.78;3.90;;;25.30;99.90;;;;;;4825985;29;20053;-77
2023/06/25 11:35:36;;;;;;;4.00;3.53;;;25.30;99.90;;;;;;4827570;29;20468;-77
2023/06/25 11:38:03;;;;;;;7.10;3.90;;;25.30;99.90;;;;;;4827577;29;20046;-77
2023/06/25 11:40:31;;;;;;;5.40;3.78;;;25.40;99.90;;;;;;4831667;29;20054;-78
2023/06/25 11:42:58;;;;;;;5.53;4.05;;;25.40;99.90;;;;;;4828627;29;20059;-78
2023/06/25 11:45:25;;;;;;;5.05;4.00;;;25.40;99.90;;;;;;4827253;29;20083;-78
2023/06/25 11:47:54;;;;;;;5.55;4.28;;;25.50;99.90;;;;;;4825516;29;20054;-77
2023/06/25 11:50:23;;;;;;;6.85;4.35;;;25.50;99.90;;;;;;4829281;29;20053;-77
2023/06/25 11:52:54;;;;;;;4.95;3.85;;;25.50;99.90;;;;;;4829182;29;20050;-77
2023/06/25 11:55:21;;;;;;;5.35;3.95;;;25.50;99.90;;;;;;4828299;29;20079;-77
2023/06/25 11:57:48;;;;;;;6.70;4.40;;;25.60;99.90;;;;;;4825251;29;20052;-77
2023/06/25 12:00:16;;;;;;;6.57;4.22;;;25.60;99.90;;;;;;4823320;29;20517;-77
2023/06/25 12:02:43;;;;;;;4.57;4.05;;;25.70;99.90;;;;;;4825404;29;20107;-78
2023/06/25 12:05:16;;;;;;;5.50;4.28;;;25.70;99.90;;;;;;4828328;29;20059;-78
2023/06/25 12:07:43;;;;;;;5.72;3.70;;;25.70;99.90;;;;;;4828790;29;20518;-77
2023/06/25 12:10:10;;;;;;;4.32;3.92;;;25.70;99.90;;;;;;4830644;29;20058;-78
2023/06/25 12:12:36;;;;;;;5.20;4.15;;;25.80;99.90;;;;;;4825124;29;20429;-77
2023/06/25 12:15:04;;;;;;;4.22;3.83;;;25.90;99.90;;;;;;4817725;29;20074;-78
2023/06/25 12:17:30;;;;;;;4.63;3.75;;;25.90;99.90;;;;;;4826111;29;20500;-78
2023/06/25 12:19:57;;;;;;;4.53;4.10;;;25.90;99.90;;;;;;4810021;29;20088;-78
2023/06/25 12:22:24;;;;;;;6.57;4.15;;;25.90;99.90;;;;;;4827790;29;20458;-78
2023/06/25 12:24:50;;;;;;;5.05;3.80;;;26.00;99.90;;;;;;4807767;29;20051;-77
2023/06/25 12:27:18;;;;;;;5.97;3.67;;;26.00;99.90;;;;;;4830003;29;20058;-78
2023/06/25 12:29:45;;;;;;;5.97;3.83;;;26.10;99.90;;;;;;4828335;29;20061;-78
2023/06/25 12:32:12;;;;;;;4.80;3.90;;;26.10;99.90;;;;;;4828733;29;20179;-78
2023/06/25 12:34:39;;;;;;;4.13;3.60;;;26.10;99.90;;;;;;4828202;29;20102;-78
2023/06/25 12:37:05;;;;;;;7.10;3.97;;;26.10;99.90;;;;;;4834855;29;20050;-77
2023/06/25 12:39:32;;;;;;;7.20;4.22;;;26.20;99.90;;;;;;4812372;29;20088;-78
2023/06/25 12:41:59;;;;;;;6.82;3.97;;;26.20;99.90;;;;;;4827346;29;20103;-77
2023/06/25 12:44:25;;;;;;;4.43;3.88;;;26.30;99.90;;;;;;4825214;29;20129;-77
2023/06/25 12:46:52;;;;;;;4.63;3.85;;;26.30;99.90;;;;;;4826267;29;20050;-78
2023/06/25 12:49:19;;;;;;;7.18;4.05;;;26.30;99.90;;;;;;4825035;29;20057;-78
2023/06/25 12:51:46;;;;;;;4.72;3.80;;;26.40;99.90;;;;;;4832736;29;20365;-78